Time;durP1;ratioP1;P1;durP2;ratioP2;P2;SDS_P1;SDS_P2;PMS_P1;PMS_P2;Temp;Humidity;BMP_temperature;BMP_pressure;BME280_temperature;BME280_humidity;BME280_pressure;Samples;Min_cycle;Max_cycle;Signal;HPM_P1;HPM_P2
2022/06/03 00:01:37;;;;;;;12.30;8.00;;;12.20;1.00;;;;;;5102855;27;20478;-72
2022/06/03 00:04:26;;;;;;;13.07;7.93;;;12.20;1.00;;;;;;5096962;27;20910;-74
2022/06/03 00:07:18;;;;;;;14.63;8.70;;;12.20;1.00;;;;;;5103489;27;20540;-74
2022/06/03 00:10:19;;;;;;;12.97;7.80;;;12.10;1.00;;;;;;5102791;27;20447;-73
2022/06/03 00:12:53;;;;;;;10.50;7.30;;;12.10;1.00;;;;;;5098995;27;20571;-73
2022/06/03 00:15:39;;;;;;;12.23;8.13;;;12.00;1.00;;;;;;5105388;27;20563;-74
2022/06/03 00:18:41;;;;;;;14.60;9.00;;;12.00;1.00;;;;;;5086462;27;20477;-74
2022/06/03 00:21:10;;;;;;;13.73;8.10;;;12.00;1.00;;;;;;5087363;27;20513;-74
2022/06/03 00:24:19;;;;;;;12.17;8.57;;;12.00;1.00;;;;;;5101998;27;20469;-73
2022/06/03 00:27:03;;;;;;;11.73;7.87;;;12.00;1.00;;;;;;5091508;27;20472;-74
2022/06/03 00:29:56;;;;;;;12.07;8.40;;;12.00;1.00;;;;;;5096935;27;21272;-73
2022/06/03 00:32:50;;;;;;;12.97;7.87;;;12.00;1.00;;;;;;5101530;27;20969;-74
2022/06/03 00:35:57;;;;;;;11.00;8.20;;;11.90;1.00;;;;;;5102381;27;20899;-74
2022/06/03 00:38:43;;;;;;;12.00;8.63;;;11.90;1.00;;;;;;5104215;27;20459;-72
2022/06/03 00:41:28;;;;;;;11.67;8.20;;;11.80;1.00;;;;;;5100365;27;20465;-73
2022/06/03 00:44:12;;;;;;;12.80;8.10;;;11.80;1.00;;;;;;5084666;28;20444;-74
2022/06/03 00:46:54;;;;;;;12.80;8.27;;;11.70;1.00;;;;;;5082569;28;21021;-73
2022/06/03 00:49:41;;;;;;;12.07;8.33;;;11.70;1.00;;;;;;5088018;28;20461;-73
2022/06/03 00:52:36;;;;;;;13.43;8.80;;;11.60;1.00;;;;;;5085241;28;20503;-73
2022/06/03 00:55:42;;;;;;;13.67;8.80;;;11.60;1.00;;;;;;5110552;27;20551;-73
2022/06/03 00:58:29;;;;;;;12.73;8.30;;;11.50;1.00;;;;;;5034626;28;20471;-73
2022/06/03 01:01:07;;;;;;;13.37;8.20;;;11.50;1.00;;;;;;5107859;27;21349;-72
2022/06/03 01:04:00;;;;;;;13.90;8.47;;;11.50;1.00;;;;;;5110696;27;20444;-74
2022/06/03 01:06:41;;;;;;;14.50;8.97;;;11.40;1.00;;;;;;5102940;27;20464;-75
2022/06/03 01:09:21;;;;;;;14.03;8.70;;;11.40;1.00;;;;;;5106777;27;20472;-75
2022/06/03 01:12:06;;;;;;;13.30;8.70;;;11.40;1.00;;;;;;5105080;27;20889;-74
2022/06/03 01:14:49;;;;;;;14.80;8.97;;;11.40;1.00;;;;;;5106053;27;20954;-73
2022/06/03 01:17:29;;;;;;;13.70;8.80;;;11.30;1.00;;;;;;5104533;27;20573;-74
2022/06/03 01:20:13;;;;;;;11.37;8.43;;;11.30;1.00;;;;;;5111504;27;20472;-74
2022/06/03 01:23:26;;;;;;;11.70;8.20;;;11.30;1.00;;;;;;5109571;27;20444;-73
2022/06/03 01:26:28;;;;;;;13.90;9.40;;;11.30;1.00;;;;;;5085060;27;20478;-75
2022/06/03 01:29:25;;;;;;;15.03;8.63;;;11.30;1.00;;;;;;5105594;27;20493;-75
2022/06/03 01:32:26;;;;;;;13.10;8.70;;;11.30;1.00;;;;;;5113103;27;21197;-73
2022/06/03 01:35:16;;;;;;;14.07;9.13;;;11.20;1.00;;;;;;5092911;27;20495;-73
2022/06/03 01:37:53;;;;;;;13.00;8.83;;;11.20;1.00;;;;;;5110628;27;20451;-73
2022/06/03 01:40:33;;;;;;;12.60;8.63;;;11.20;1.00;;;;;;5108169;27;20458;-74
2022/06/03 01:43:26;;;;;;;12.00;8.53;;;11.20;1.00;;;;;;5107807;27;20459;-74
2022/06/03 01:46:25;;;;;;;13.90;9.13;;;11.10;1.00;;;;;;5107252;27;20883;-75
2022/06/03 01:49:22;;;;;;;14.50;9.50;;;11.10;1.00;;;;;;5103395;27;20473;-74
2022/06/03 01:52:25;;;;;;;16.77;9.37;;;11.10;1.00;;;;;;5103070;27;20459;-72
2022/06/03 01:55:35;;;;;;;13.20;9.20;;;11.00;1.00;;;;;;5108037;27;20556;-74
2022/06/03 01:58:32;;;;;;;14.30;10.30;;;11.00;1.00;;;;;;5103105;27;20461;-73
2022/06/03 02:01:17;;;;;;;13.33;9.13;;;11.00;1.00;;;;;;5094698;27;20914;-72
2022/06/03 02:04:04;;;;;;;13.13;9.27;;;11.00;1.00;;;;;;5105618;27;20553;-73
2022/06/03 02:07:05;;;;;;;14.43;9.20;;;11.00;1.00;;;;;;5103857;27;20476;-73
2022/06/03 02:10:13;;;;;;;15.10;8.70;;;10.90;1.00;;;;;;5103972;27;20457;-73
2022/06/03 02:13:18;;;;;;;16.57;9.87;;;10.90;1.00;;;;;;5107636;27;20452;-74
2022/06/03 02:16:05;;;;;;;15.37;9.80;;;10.90;1.00;;;;;;5088775;27;20895;-74
2022/06/03 02:19:10;;;;;;;16.57;10.30;;;10.90;1.00;;;;;;5102491;27;21195;-73
2022/06/03 02:22:13;;;;;;;14.57;9.77;;;10.90;1.00;;;;;;5106212;27;20555;-72
2022/06/03 02:25:11;;;;;;;13.23;9.20;;;10.90;1.00;;;;;;5102761;27;20494;-72
2022/06/03 02:28:08;;;;;;;13.53;9.57;;;10.80;1.00;;;;;;5084148;27;20445;-72
2022/06/03 02:31:05;;;;;;;14.10;9.40;;;10.80;1.00;;;;;;5103106;27;20496;-72
2022/06/03 02:34:05;;;;;;;14.13;9.50;;;10.70;1.00;;;;;;5105620;27;20479;-73
2022/06/03 02:37:03;;;;;;;15.20;10.27;;;10.60;1.00;;;;;;5105750;27;20799;-73
2022/06/03 02:39:48;;;;;;;15.53;9.83;;;10.50;1.00;;;;;;5103921;27;20518;-73
2022/06/03 02:42:45;;;;;;;13.17;9.37;;;10.50;1.00;;;;;;5103398;27;20466;-73
2022/06/03 02:45:41;;;;;;;15.93;10.03;;;10.60;1.00;;;;;;5105105;27;20467;-73
2022/06/03 02:48:38;;;;;;;17.20;9.50;;;10.60;1.00;;;;;;5105694;27;20889;-73
2022/06/03 02:51:20;;;;;;;13.30;9.47;;;10.60;1.00;;;;;;5105072;27;20515;-74
2022/06/03 02:54:23;;;;;;;16.00;9.80;;;10.70;1.00;;;;;;5104791;27;20474;-73
2022/06/03 02:57:23;;;;;;;13.90;9.60;;;10.70;1.00;;;;;;5114653;27;20493;-73
2022/06/03 03:00:16;;;;;;;13.67;9.40;;;10.70;1.00;;;;;;5076725;27;20452;-73
2022/06/03 03:03:17;;;;;;;14.47;10.17;;;10.60;1.00;;;;;;5110882;27;20490;-73
2022/06/03 03:06:14;;;;;;;17.20;10.77;;;10.60;1.00;;;;;;5064105;27;20471;-72
2022/06/03 03:09:17;;;;;;;15.37;10.50;;;10.60;1.00;;;;;;5091799;27;20546;-74
2022/06/03 03:12:07;;;;;;;14.83;9.87;;;10.60;1.00;;;;;;5102388;27;20528;-73
2022/06/03 03:15:07;;;;;;;15.33;10.93;;;10.60;1.00;;;;;;5103438;27;20527;-74
2022/06/03 03:18:04;;;;;;;14.87;10.00;;;10.50;1.00;;;;;;5092304;27;20544;-74
2022/06/03 03:21:04;;;;;;;13.43;9.83;;;10.50;1.00;;;;;;5109936;27;20472;-73
2022/06/03 03:23:56;;;;;;;18.67;10.47;;;10.40;1.00;;;;;;5109344;27;20486;-74
2022/06/03 03:26:31;;;;;;;16.00;10.00;;;10.40;1.00;;;;;;5104074;27;20496;-73
2022/06/03 03:29:14;;;;;;;18.20;10.40;;;10.40;1.00;;;;;;5103147;27;20530;-74
2022/06/03 03:32:09;;;;;;;16.70;11.40;;;10.40;1.00;;;;;;5112305;27;20547;-73
2022/06/03 03:35:24;;;;;;;17.25;11.45;;;10.40;1.00;;;;;;5105498;27;20461;-72
2022/06/03 03:38:23;;;;;;;14.90;10.53;;;10.50;1.00;;;;;;5028441;28;20246;-73
2022/06/03 03:41:30;;;;;;;14.20;10.27;;;10.50;1.00;;;;;;5023026;28;20992;-74
2022/06/03 03:44:45;;;;;;;14.32;10.68;;;10.50;1.00;;;;;;5104048;27;20449;-74
2022/06/03 03:47:43;;;;;;;19.83;11.80;;;10.50;1.00;;;;;;4997067;28;20332;-73
2022/06/03 03:50:46;;;;;;;15.20;10.53;;;10.50;1.00;;;;;;5022505;28;20506;-74
2022/06/03 03:53:59;;;;;;;14.77;10.40;;;10.60;1.00;;;;;;5076806;28;20483;-73
2022/06/03 03:56:45;;;;;;;17.53;10.13;;;10.50;1.00;;;;;;5105671;27;20551;-73
2022/06/03 03:59:44;;;;;;;15.07;10.30;;;10.60;1.00;;;;;;5102114;27;20487;-73
2022/06/03 04:02:47;;;;;;;13.50;10.17;;;10.60;1.00;;;;;;5095637;27;20467;-74
2022/06/03 04:05:49;;;;;;;15.83;11.10;;;10.70;1.00;;;;;;5099776;27;20474;-74
2022/06/03 04:08:36;;;;;;;17.70;10.20;;;10.70;1.00;;;;;;5104350;27;20453;-73
2022/06/03 04:11:35;;;;;;;15.63;10.57;;;10.80;1.00;;;;;;5101394;27;20476;-73
2022/06/03 04:14:35;;;;;;;14.23;9.93;;;10.80;1.00;;;;;;5104729;27;20831;-73
2022/06/03 04:17:53;;;;;;;13.10;8.90;;;10.90;1.00;;;;;;5101999;27;20472;-72
2022/06/03 04:20:46;;;;;;;17.23;10.60;;;11.00;1.00;;;;;;5104633;27;20588;-73
2022/06/03 04:23:41;;;;;;;19.43;12.30;;;11.10;1.00;;;;;;5091249;27;20959;-75
2022/06/03 04:26:23;;;;;;;15.40;10.20;;;11.20;1.00;;;;;;5072992;27;20475;-73
2022/06/03 04:29:34;;;;;;;17.13;11.57;;;11.20;1.00;;;;;;5106985;27;20463;-73
2022/06/03 04:32:28;;;;;;;16.70;11.27;;;11.30;1.00;;;;;;5107673;27;21008;-72
2022/06/03 04:36:01;;;;;;;17.40;11.40;;;11.40;1.00;;;;;;5102674;27;20490;-73
2022/06/03 04:39:02;;;;;;;17.93;12.20;;;11.50;1.00;;;;;;5103002;27;20457;-73
2022/06/03 04:42:05;;;;;;;14.20;9.73;;;11.60;1.00;;;;;;5096182;27;20468;-75
2022/06/03 04:45:10;;;;;;;18.40;11.00;;;11.70;1.00;;;;;;5102293;27;20487;-73
2022/06/03 04:48:31;;;;;;;15.87;9.63;;;11.70;1.00;;;;;;5103777;27;20911;-73
2022/06/03 04:51:43;;;;;;;14.57;10.77;;;11.80;1.00;;;;;;5087457;28;20457;-74
2022/06/03 04:54:49;;;;;;;13.93;9.90;;;12.00;1.00;;;;;;5101365;27;20509;-73
2022/06/03 04:57:45;;;;;;;13.30;9.87;;;12.10;1.00;;;;;;5099320;27;20488;-74
2022/06/03 05:00:35;;;;;;;13.37;9.27;;;12.30;1.00;;;;;;5105665;27;20563;-76
2022/06/03 05:03:43;;;;;;;15.07;10.57;;;12.40;1.00;;;;;;5095527;27;21175;-75
2022/06/03 05:06:47;;;;;;;14.57;10.03;;;12.50;1.00;;;;;;5103076;27;20474;-74
2022/06/03 05:09:51;;;;;;;11.90;8.03;;;12.60;1.00;;;;;;5104509;27;21045;-74
2022/06/03 05:12:55;;;;;;;10.60;7.57;;;12.80;1.00;;;;;;5103303;27;20457;-75
2022/06/03 05:15:57;;;;;;;12.10;7.67;;;12.90;1.00;;;;;;5098155;27;21161;-74
2022/06/03 05:18:43;;;;;;;10.93;7.23;;;13.10;1.00;;;;;;5102119;27;20478;-74
2022/06/03 05:21:52;;;;;;;9.70;6.47;;;13.30;1.00;;;;;;5100657;27;20491;-74
2022/06/03 05:25:07;;;;;;;10.80;5.17;;;13.40;1.00;;;;;;5102383;27;20962;-74
2022/06/03 05:28:11;;;;;;;10.57;5.53;;;13.60;1.00;;;;;;5104922;27;20477;-75
2022/06/03 05:31:02;;;;;;;13.10;9.83;;;13.80;1.00;;;;;;5101624;27;20474;-73
2022/06/03 05:33:45;;;;;;;12.47;5.90;;;14.00;1.00;;;;;;5105563;27;20993;-73
2022/06/03 05:36:46;;;;;;;12.43;5.90;;;14.10;1.00;;;;;;5109242;27;20537;-74
2022/06/03 05:39:57;;;;;;;9.27;5.60;;;14.40;1.00;;;;;;5106905;27;21168;-76
2022/06/03 05:43:12;;;;;;;11.80;5.40;;;14.60;1.00;;;;;;5085877;27;20533;-75
2022/06/03 05:46:06;;;;;;;12.00;5.90;;;14.90;1.00;;;;;;5048200;27;20538;-76
2022/06/03 05:48:54;;;;;;;10.40;5.50;;;15.00;1.00;;;;;;5108852;27;20431;-76
2022/06/03 05:51:54;;;;;;;10.23;4.77;;;15.20;1.00;;;;;;5101462;27;20457;-76
2022/06/03 05:54:43;;;;;;;9.63;4.87;;;15.40;1.00;;;;;;5028656;28;20560;-74
2022/06/03 05:57:19;;;;;;;10.57;4.87;;;15.60;1.00;;;;;;5027595;28;20469;-73
2022/06/03 06:00:23;;;;;;;8.73;3.77;;;15.70;1.00;;;;;;5106588;27;20455;-74
2022/06/03 06:03:01;;;;;;;8.43;4.53;;;15.90;1.00;;;;;;5075481;27;20519;-75
2022/06/03 06:05:36;;;;;;;9.47;4.60;;;16.00;1.00;;;;;;5103731;27;20489;-75
2022/06/03 06:08:16;;;;;;;9.57;4.10;;;16.10;1.00;;;;;;5112297;27;21634;-75
2022/06/03 06:10:50;;;;;;;9.33;5.13;;;16.20;1.00;;;;;;5111036;27;20458;-75
2022/06/03 06:13:39;;;;;;;10.50;4.47;;;16.30;1.00;;;;;;5105420;27;20473;-75
2022/06/03 06:16:11;;;;;;;9.80;4.90;;;16.50;1.00;;;;;;5103611;27;20892;-75
2022/06/03 06:18:47;;;;;;;8.20;4.03;;;16.50;1.00;;;;;;5106710;27;20460;-75
2022/06/03 06:21:31;;;;;;;8.63;4.00;;;16.60;1.00;;;;;;5105481;27;20464;-75
2022/06/03 06:24:11;;;;;;;12.60;4.53;;;16.70;1.00;;;;;;5101030;27;20449;-75
2022/06/03 06:27:04;;;;;;;6.67;3.23;;;16.80;1.00;;;;;;5100511;27;20470;-75
2022/06/03 06:30:13;;;;;;;7.77;4.00;;;16.80;1.00;;;;;;5102707;27;20439;-75
2022/06/03 06:33:06;;;;;;;7.57;3.47;;;16.90;1.00;;;;;;5103893;27;20459;-74
2022/06/03 06:36:06;;;;;;;7.17;3.40;;;17.00;1.00;;;;;;5102626;27;21046;-74
2022/06/03 06:38:45;;;;;;;7.63;3.40;;;17.10;1.00;;;;;;5104333;27;21127;-74
2022/06/03 06:41:24;;;;;;;6.43;3.00;;;17.30;1.00;;;;;;5108543;27;20478;-74
2022/06/03 06:43:57;;;;;;;6.97;3.77;;;17.30;1.00;;;;;;5100789;27;20461;-75
2022/06/03 06:46:32;;;;;;;8.00;3.30;;;17.40;1.00;;;;;;5100199;27;20457;-75
2022/06/03 06:49:15;;;;;;;7.37;2.90;;;17.50;1.00;;;;;;5103734;27;20579;-74
2022/06/03 06:52:08;;;;;;;10.77;3.93;;;17.60;1.00;;;;;;5100658;27;20462;-75
2022/06/03 06:54:46;;;;;;;6.97;3.00;;;17.70;1.00;;;;;;5104081;27;23207;-76
2022/06/03 06:57:19;;;;;;;7.17;3.00;;;17.80;1.00;;;;;;5108184;27;20552;-74
2022/06/03 06:59:49;;;;;;;6.17;2.77;;;17.90;1.00;;;;;;5103669;27;20612;-74
2022/06/03 07:02:21;;;;;;;10.53;4.10;;;18.00;1.00;;;;;;5103818;27;20454;-74
2022/06/03 07:04:54;;;;;;;8.80;3.40;;;18.20;1.00;;;;;;5104976;27;20851;-75
2022/06/03 07:07:28;;;;;;;7.13;3.10;;;18.20;1.00;;;;;;5103967;27;20462;-75
2022/06/03 07:10:00;;;;;;;7.27;2.63;;;18.20;1.00;;;;;;5101911;27;20461;-75
2022/06/03 07:12:32;;;;;;;6.67;2.50;;;18.20;1.00;;;;;;5102743;27;20477;-75
2022/06/03 07:15:06;;;;;;;6.30;2.50;;;18.20;1.00;;;;;;5101632;27;20460;-75
2022/06/03 07:20:54;;;;;;;6.47;2.70;;;18.30;1.00;;;;;;5038981;28;20962;-75
2022/06/03 07:23:32;;;;;;;8.87;4.03;;;18.50;1.00;;;;;;5044669;28;20460;-75
2022/06/03 07:26:06;;;;;;;5.70;2.80;;;18.50;1.00;;;;;;5076233;27;20453;-75
2022/06/03 07:28:43;;;;;;;7.60;2.47;;;18.60;1.00;;;;;;5103114;27;20472;-75
2022/06/03 07:31:21;;;;;;;6.40;2.20;;;18.70;1.00;;;;;;5105351;27;20931;-75
2022/06/03 07:33:57;;;;;;;6.03;3.30;;;18.80;1.00;;;;;;5102613;27;20898;-75
2022/06/03 07:36:35;;;;;;;5.20;2.50;;;18.90;1.00;;;;;;5107812;27;20536;-75
2022/06/03 07:39:19;;;;;;;5.50;2.70;;;18.90;1.00;;;;;;5102277;27;20457;-76
2022/06/03 07:41:52;;;;;;;5.00;2.10;;;18.80;1.00;;;;;;5104274;27;20842;-78
2022/06/03 07:44:25;;;;;;;6.60;2.50;;;18.90;1.00;;;;;;5102017;27;20906;-74
2022/06/03 07:47:00;;;;;;;8.20;2.77;;;19.00;1.00;;;;;;5101617;27;20543;-75
2022/06/03 07:49:31;;;;;;;5.37;2.00;;;19.10;1.00;;;;;;5083986;28;23079;-75
2022/06/03 07:52:04;;;;;;;5.17;2.33;;;19.40;1.00;;;;;;5101971;27;20469;-75
2022/06/03 07:54:34;;;;;;;7.27;2.90;;;19.60;1.00;;;;;;5101217;27;20472;-74
2022/06/03 07:57:03;;;;;;;6.50;2.50;;;19.80;1.00;;;;;;5107531;27;20980;-74
2022/06/03 07:59:34;;;;;;;8.37;3.67;;;20.10;1.00;;;;;;5105535;27;20458;-75
2022/06/03 08:02:04;;;;;;;5.63;2.80;;;20.10;1.00;;;;;;5099410;27;20425;-74
2022/06/03 08:04:34;;;;;;;5.90;2.73;;;20.20;1.00;;;;;;5102480;27;20485;-75
2022/06/03 08:12:36;;;;;;;6.40;3.03;;;20.30;1.00;;;;;;5102678;27;20506;-74
2022/06/03 08:15:15;;;;;;;7.13;3.03;;;20.30;1.00;;;;;;5105298;27;20461;-74
2022/06/03 08:17:43;;;;;;;6.90;2.73;;;20.40;1.00;;;;;;5094092;27;20472;-74
2022/06/03 08:20:11;;;;;;;6.27;3.00;;;20.30;1.00;;;;;;5101914;27;20469;-75
2022/06/03 08:22:38;;;;;;;7.47;3.03;;;20.40;1.00;;;;;;5105252;27;20459;-75
2022/06/03 08:25:08;;;;;;;5.50;2.77;;;20.60;1.00;;;;;;5101980;27;21086;-75
2022/06/03 08:27:37;;;;;;;5.40;2.80;;;20.50;1.00;;;;;;5099671;27;21349;-74
2022/06/03 08:30:07;;;;;;;7.40;3.50;;;20.60;1.00;;;;;;5108278;27;20451;-74
2022/06/03 08:32:40;;;;;;;6.30;3.30;;;20.70;1.00;;;;;;5099039;27;20473;-76
2022/06/03 08:35:10;;;;;;;5.67;2.70;;;20.80;1.00;;;;;;5098225;27;20504;-75
2022/06/03 08:37:48;;;;;;;5.40;2.80;;;21.00;1.00;;;;;;5098830;27;20450;-77
2022/06/03 08:40:24;;;;;;;7.07;3.77;;;21.20;1.00;;;;;;5103491;27;20476;-75
2022/06/03 08:43:00;;;;;;;5.70;2.87;;;21.40;1.00;;;;;;5101518;27;20528;-76
2022/06/03 08:45:35;;;;;;;6.40;3.03;;;21.60;1.00;;;;;;5103809;27;20512;-76
2022/06/03 08:48:11;;;;;;;5.70;2.70;;;21.70;1.00;;;;;;5106480;27;20433;-76
2022/06/03 08:50:43;;;;;;;5.37;2.83;;;21.90;1.00;;;;;;5102321;27;20888;-75
2022/06/03 08:53:18;;;;;;;5.60;2.50;;;22.00;1.00;;;;;;5103037;27;20473;-75
2022/06/03 08:55:48;;;;;;;6.07;2.60;;;22.00;1.00;;;;;;5098610;27;20457;-76
2022/06/03 08:58:26;;;;;;;5.67;3.03;;;22.00;1.00;;;;;;5108887;27;20989;-77
2022/06/03 09:01:00;;;;;;;6.03;2.90;;;22.00;1.00;;;;;;5106535;27;20991;-74
2022/06/03 09:03:31;;;;;;;7.90;3.20;;;22.00;1.00;;;;;;5099248;27;20851;-75
2022/06/03 09:06:06;;;;;;;6.40;2.70;;;22.00;1.00;;;;;;5103167;27;20568;-75
2022/06/03 09:08:40;;;;;;;6.43;2.80;;;22.10;1.00;;;;;;5105162;27;20469;-76
2022/06/03 09:11:18;;;;;;;5.67;2.87;;;22.20;1.00;;;;;;5104696;27;20454;-76
2022/06/03 09:13:53;;;;;;;5.83;2.37;;;22.30;1.00;;;;;;5106758;27;20481;-77
2022/06/03 09:16:22;;;;;;;6.73;2.77;;;22.20;1.00;;;;;;5104391;27;20456;-74
2022/06/03 09:18:56;;;;;;;6.40;2.57;;;22.30;1.00;;;;;;5103911;27;20457;-76
2022/06/03 09:21:26;;;;;;;8.23;2.77;;;22.30;1.00;;;;;;5105000;27;20469;-74
2022/06/03 09:23:58;;;;;;;6.63;3.60;;;22.40;1.00;;;;;;5110358;27;20584;-75
2022/06/03 09:26:29;;;;;;;5.73;2.50;;;22.60;1.00;;;;;;5105236;27;20946;-75
2022/06/03 09:28:58;;;;;;;5.50;2.47;;;22.70;1.00;;;;;;5106504;27;20537;-74
2022/06/03 09:31:26;;;;;;;7.00;2.60;;;22.80;1.00;;;;;;5107101;27;20458;-76
2022/06/03 09:33:57;;;;;;;6.80;2.27;;;23.00;1.00;;;;;;5105777;27;20462;-77
2022/06/03 09:36:25;;;;;;;6.53;2.50;;;23.60;1.00;;;;;;5109178;27;20437;-75
2022/06/03 09:38:57;;;;;;;6.57;2.67;;;25.00;1.00;;;;;;5089727;27;20543;-74
2022/06/03 09:41:27;;;;;;;5.00;1.70;;;26.60;1.00;;;;;;5105722;27;20515;-75
2022/06/03 09:43:56;;;;;;;5.40;2.00;;;28.10;1.00;;;;;;5108083;27;20472;-76
2022/06/03 09:46:28;;;;;;;6.93;3.03;;;29.40;1.00;;;;;;5102721;27;20464;-75
2022/06/03 09:48:57;;;;;;;5.03;2.23;;;30.80;1.00;;;;;;5109454;27;20823;-75
2022/06/03 09:54:08;;;;;;;5.10;2.10;;;32.20;1.00;;;;;;5101876;27;20552;-74
2022/06/03 09:56:35;;;;;;;5.20;2.20;;;31.90;1.00;;;;;;5104103;27;21144;-76
2022/06/03 09:59:04;;;;;;;4.10;2.00;;;32.00;1.00;;;;;;5108947;27;20470;-76
2022/06/03 10:01:31;;;;;;;4.80;2.10;;;32.20;1.00;;;;;;5105736;27;20476;-75
2022/06/03 10:04:07;;;;;;;4.37;2.17;;;32.70;1.00;;;;;;5105511;27;20464;-74
2022/06/03 10:06:50;;;;;;;5.70;2.00;;;33.40;1.00;;;;;;5104383;27;20464;-75
2022/06/03 10:17:37;;;;;;;4.70;2.37;;;34.90;1.00;;;;;;5108426;27;21017;-75
2022/06/03 10:20:08;;;;;;;4.40;1.73;;;35.40;1.00;;;;;;5102082;27;20923;-76
2022/06/03 10:22:35;;;;;;;4.53;2.60;;;35.40;1.00;;;;;;5102556;27;20450;-76
2022/06/03 10:25:02;;;;;;;5.37;2.60;;;35.50;1.00;;;;;;5107812;27;20560;-75
2022/06/03 10:27:29;;;;;;;4.80;2.20;;;35.40;1.00;;;;;;5108372;27;20453;-74
2022/06/03 10:30:00;;;;;;;4.43;2.57;;;35.60;1.00;;;;;;5107937;27;20555;-76
2022/06/03 10:32:28;;;;;;;5.13;2.57;;;35.70;1.00;;;;;;5110968;27;20450;-75
2022/06/03 10:35:04;;;;;;;4.97;1.97;;;36.00;1.00;;;;;;5109854;27;20552;-75
2022/06/03 10:37:34;;;;;;;3.80;2.00;;;36.30;1.00;;;;;;5109365;27;20472;-76
2022/06/03 10:40:02;;;;;;;6.10;2.60;;;36.70;1.00;;;;;;5092240;28;20976;-76
2022/06/03 10:42:29;;;;;;;5.07;2.50;;;36.80;1.00;;;;;;5110097;27;20449;-76
2022/06/03 10:44:59;;;;;;;4.20;2.40;;;36.90;1.00;;;;;;5109027;27;21015;-76
2022/06/03 10:47:35;;;;;;;5.13;2.43;;;37.30;1.00;;;;;;5114885;27;20476;-76
2022/06/03 10:50:05;;;;;;;4.77;2.30;;;37.30;1.00;;;;;;5111975;27;20468;-76
2022/06/03 11:01:09;;;;;;;4.30;2.27;;;38.00;1.00;;;;;;5107206;27;20446;-74
2022/06/03 11:03:41;;;;;;;4.60;2.30;;;37.70;1.00;;;;;;5108935;27;20469;-75
2022/06/03 11:06:14;;;;;;;4.93;2.93;;;38.00;1.00;;;;;;5104804;27;20530;-75
2022/06/03 11:08:58;;;;;;;4.20;1.90;;;38.20;1.00;;;;;;5107037;27;20555;-77
2022/06/03 11:11:51;;;;;;;4.33;1.60;;;38.50;1.00;;;;;;5104031;27;20935;-75
2022/06/03 11:14:36;;;;;;;5.43;1.93;;;38.90;1.00;;;;;;5108946;27;20454;-75
2022/06/03 11:17:21;;;;;;;6.30;4.23;;;39.10;1.00;;;;;;5108110;27;20469;-76
2022/06/03 11:19:53;;;;;;;5.70;2.60;;;39.10;1.00;;;;;;5104428;28;20456;-76
2022/06/03 11:22:25;;;;;;;3.87;2.13;;;39.40;1.00;;;;;;5108142;27;20561;-74
2022/06/03 11:25:02;;;;;;;4.10;2.17;;;39.60;1.00;;;;;;5102192;27;20465;-76
2022/06/03 11:27:35;;;;;;;3.77;1.80;;;39.30;1.00;;;;;;5094772;27;20473;-75
2022/06/03 11:30:07;;;;;;;4.37;2.50;;;39.20;1.00;;;;;;5105520;27;20469;-75
2022/06/03 11:32:36;;;;;;;4.90;2.80;;;39.60;1.00;;;;;;5097760;27;20541;-76
2022/06/03 11:35:07;;;;;;;7.07;3.30;;;40.10;1.00;;;;;;5110193;27;20907;-75
2022/06/03 11:37:39;;;;;;;4.83;2.37;;;40.10;1.00;;;;;;5106611;27;20477;-75
2022/06/03 11:40:16;;;;;;;5.40;2.30;;;40.20;1.00;;;;;;5103983;27;20866;-75
2022/06/03 11:42:48;;;;;;;5.70;3.30;;;40.40;1.00;;;;;;5102277;27;20456;-76
2022/06/03 11:45:18;;;;;;;3.67;2.07;;;40.40;1.00;;;;;;5104354;27;20870;-77
2022/06/03 11:47:50;;;;;;;3.50;2.03;;;40.30;1.00;;;;;;5104966;27;20473;-75
2022/06/03 11:50:20;;;;;;;3.97;1.93;;;40.10;1.00;;;;;;5106649;27;20887;-76
2022/06/03 11:52:50;;;;;;;3.30;1.90;;;40.00;1.00;;;;;;5110954;27;20510;-75
2022/06/03 11:55:20;;;;;;;3.30;1.87;;;39.90;1.00;;;;;;5102000;27;20967;-76
2022/06/03 11:57:56;;;;;;;4.17;2.00;;;40.30;1.00;;;;;;5106432;27;20465;-75
2022/06/03 12:00:27;;;;;;;4.70;3.17;;;40.20;1.00;;;;;;5100915;27;20479;-75
2022/06/03 12:03:05;;;;;;;3.30;1.80;;;40.10;1.00;;;;;;5104397;27;20438;-75
2022/06/03 12:05:38;;;;;;;5.80;2.27;;;39.60;1.00;;;;;;5110036;27;20491;-75
2022/06/03 12:08:11;;;;;;;4.03;1.97;;;39.60;1.00;;;;;;5103198;27;20608;-76
2022/06/03 12:10:46;;;;;;;3.70;2.03;;;40.40;1.00;;;;;;5105512;27;20455;-75
2022/06/03 12:13:16;;;;;;;3.73;2.00;;;41.00;1.00;;;;;;5111823;27;20462;-76
2022/06/03 12:15:51;;;;;;;3.87;1.80;;;41.40;1.00;;;;;;5090224;27;20474;-75
2022/06/03 12:18:52;;;;;;;6.60;3.53;;;41.30;1.00;;;;;;5107871;27;20576;-75
2022/06/03 12:21:52;;;;;;;5.30;2.50;;;41.20;1.00;;;;;;5108038;27;20465;-75
2022/06/03 12:24:40;;;;;;;5.30;3.17;;;41.30;1.00;;;;;;5110096;27;20540;-75
2022/06/03 12:27:19;;;;;;;3.57;1.90;;;41.40;1.00;;;;;;5108937;27;20544;-76
2022/06/03 12:29:56;;;;;;;4.00;2.23;;;41.40;1.00;;;;;;5101713;27;20480;-75
2022/06/03 12:32:28;;;;;;;4.33;2.20;;;41.40;1.00;;;;;;5109461;27;20466;-75
2022/06/03 12:35:31;;;;;;;4.53;1.70;;;41.70;1.00;;;;;;5108931;27;20481;-75
2022/06/03 12:38:31;;;;;;;4.90;2.47;;;42.60;1.00;;;;;;5071004;27;20464;-76
2022/06/03 12:41:00;;;;;;;4.90;2.40;;;42.80;1.00;;;;;;5106017;27;20492;-77
2022/06/03 12:43:33;;;;;;;5.90;2.93;;;42.20;1.00;;;;;;5104555;27;20469;-76
2022/06/03 12:46:02;;;;;;;4.30;2.30;;;41.70;1.00;;;;;;5112357;27;20866;-76
2022/06/03 12:48:48;;;;;;;5.53;2.83;;;41.10;1.00;;;;;;5112901;27;20460;-77
2022/06/03 12:51:24;;;;;;;3.37;1.70;;;40.80;1.00;;;;;;5111675;27;20959;-77
2022/06/03 12:53:55;;;;;;;3.20;1.63;;;40.90;1.00;;;;;;5112922;27;20414;-76
2022/06/03 12:56:44;;;;;;;3.97;2.07;;;40.70;1.00;;;;;;5105632;27;20610;-76
2022/06/03 12:59:30;;;;;;;4.37;2.10;;;40.70;1.00;;;;;;5104349;27;20466;-76
2022/06/03 13:02:01;;;;;;;4.83;2.03;;;40.20;1.00;;;;;;5102498;27;20954;-76
2022/06/03 13:04:40;;;;;;;4.60;2.30;;;40.20;1.00;;;;;;5110677;27;20457;-78
2022/06/03 13:07:39;;;;;;;4.10;2.47;;;40.60;1.00;;;;;;5117683;27;20458;-77
2022/06/03 13:10:31;;;;;;;3.70;2.00;;;40.90;1.00;;;;;;5114247;27;20458;-77
2022/06/03 13:13:24;;;;;;;4.80;2.87;;;40.60;1.00;;;;;;5109123;27;20857;-76
2022/06/03 13:15:53;;;;;;;5.60;2.60;;;40.30;1.00;;;;;;5115256;27;21313;-76
2022/06/03 13:18:38;;;;;;;3.37;1.90;;;40.60;1.00;;;;;;5111003;27;20562;-77
2022/06/03 13:21:27;;;;;;;3.23;1.60;;;40.70;1.00;;;;;;5110365;27;20919;-78
2022/06/03 13:23:58;;;;;;;3.63;2.40;;;41.00;1.00;;;;;;5113714;27;20464;-78
2022/06/03 13:27:06;;;;;;;3.40;1.87;;;41.50;1.00;;;;;;5117573;27;20470;-77
2022/06/03 13:30:13;;;;;;;3.93;2.23;;;41.50;1.00;;;;;;5070428;27;20464;-77
2022/06/03 13:32:58;;;;;;;5.20;2.00;;;41.30;1.00;;;;;;5108313;27;20544;-77
2022/06/03 13:35:28;;;;;;;4.93;1.93;;;41.10;1.00;;;;;;5109867;27;20479;-77
2022/06/03 13:38:25;;;;;;;3.70;2.10;;;42.00;1.00;;;;;;5108296;27;20425;-77
2022/06/03 13:44:07;;;;;;;2.90;1.50;;;42.50;1.00;;;;;;5112020;27;20536;-77
2022/06/03 13:46:35;;;;;;;4.17;2.27;;;42.40;1.00;;;;;;5108696;27;20501;-77
2022/06/03 13:49:23;;;;;;;3.63;1.93;;;42.10;1.00;;;;;;5112188;27;20462;-77
2022/06/03 13:52:11;;;;;;;4.97;3.07;;;41.90;1.00;;;;;;5113399;27;20445;-77
2022/06/03 13:54:48;;;;;;;3.80;1.90;;;41.80;1.00;;;;;;5103500;27;20449;-77
2022/06/03 13:57:29;;;;;;;5.10;2.17;;;42.20;1.00;;;;;;5105115;27;20511;-78
2022/06/03 14:00:17;;;;;;;3.67;1.97;;;42.50;1.00;;;;;;5109145;27;20552;-78
2022/06/03 14:02:45;;;;;;;6.37;2.30;;;43.00;1.00;;;;;;5112015;27;20459;-78
2022/06/03 14:05:16;;;;;;;3.50;2.10;;;42.80;1.00;;;;;;5106940;27;20558;-78
2022/06/03 14:07:53;;;;;;;4.90;1.87;;;42.90;1.00;;;;;;5111732;27;20911;-77
2022/06/03 14:10:22;;;;;;;4.83;2.03;;;42.30;1.00;;;;;;5107200;27;20470;-77
2022/06/03 14:12:56;;;;;;;3.60;2.00;;;41.70;1.00;;;;;;5106333;27;21014;-77
2022/06/03 14:15:27;;;;;;;3.57;1.47;;;41.50;1.00;;;;;;5109584;27;20457;-77
2022/06/03 14:17:57;;;;;;;6.50;2.80;;;41.10;1.00;;;;;;5112595;27;20483;-77
2022/06/03 14:20:32;;;;;;;6.03;3.60;;;40.30;1.00;;;;;;5112956;27;20440;-77
2022/06/03 14:23:26;;;;;;;3.10;1.80;;;40.70;1.00;;;;;;5110485;27;20844;-78
2022/06/03 14:26:01;;;;;;;4.00;2.50;;;41.00;1.00;;;;;;5111315;27;20457;-76
2022/06/03 14:28:37;;;;;;;4.17;1.97;;;41.00;1.00;;;;;;5109658;27;20472;-78
2022/06/03 14:31:12;;;;;;;4.63;2.40;;;40.60;1.00;;;;;;5109236;27;20461;-76
2022/06/03 14:34:01;;;;;;;5.10;4.50;;;40.20;1.00;;;;;;5111116;27;20455;-80
2022/06/03 14:36:35;;;;;;;4.70;2.10;;;40.20;1.00;;;;;;5101859;27;20546;-77
2022/06/03 14:39:10;;;;;;;3.97;2.37;;;40.20;1.00;;;;;;5097954;27;20465;-77
2022/06/03 14:41:39;;;;;;;3.70;1.77;;;40.70;1.00;;;;;;5098112;27;20505;-75
2022/06/03 14:44:17;;;;;;;3.83;1.83;;;41.20;1.00;;;;;;5103634;27;20462;-79
2022/06/03 14:46:53;;;;;;;4.13;2.10;;;41.50;1.00;;;;;;5105004;27;21271;-77
2022/06/03 14:49:24;;;;;;;5.27;2.50;;;41.80;1.00;;;;;;5104013;27;20966;-77
2022/06/03 14:52:02;;;;;;;4.27;2.00;;;41.70;1.00;;;;;;5106758;27;20447;-77